Accueil
METAR-TAF:

METAR-TAF

Aéroports :

Aéroport international de Fascene

Nosy Be, Madagascar

latitude: 13-19S, longitude: 048-19E, altitude: 10 m

Observation

Le bulletin a été fait il y a 38 minutes, à 15:00 UTC
Vent 10 kt de sud/sud-est
Température 23°C
Humidité 65%
Pression 1021 hPa
Visibilité 10 km ou plus
Nuages fragmentés à une hauteur de 1700 ft

METAR: FMNN 091500Z 16010KT 9999 BKN017 23/16 Q1021

Heure: 18:38 (15:38 UTC)

Prévision

Le bulletin a été fait il y a 4 heures et 38 minutes, à 11:00 UTC
Prévision valable du 09 à 12 UTC au 10 à 12 UTC
Vent 4 kt de direction variable
Visibilité 10 km ou plus
Quelques nuages à une hauteur de 2000 ft
Nuages épars à une hauteur de 4000 ft

TAF: FMNN 091100Z 0912/1012 VRB04KT 9999 FEW020 SCT040

Observations et prévisions météorologiques de plus de 4000 aéroports (messages METAR et TAF).

Les stations disponibles sont représentées par des disques jaunes et rouges sur la carte.

Passer la souris dessus pour voir le nom de la station.

Cliquer dessus pour voir les observations et prévisions météorologiques.

Pour changer de carte: cliquez sur les boutons verts avec une croix noire pour zoomer, sur le bouton vert avec un tiret pour effectuer un zoom arrière, ou sur les flèches vertes pour les cartes adjacentes.


METAR-TAF: